Patton, Texas
Current Conditions -  °F | °C
As of 10:55 AM on Thursday 30 Oct 2014 (Local Time) from K6R3 Reporting Station
Clear Clear  
Wind Chill: 66°   Ceiling: Unl
Heat Index: 66°   Visibility: 10mi
Dew Point: 53°   Wind: 3mph
Humidity: 62%   Direction: 130°SE
Pressure: 30.18"   Gusts: NA
Location:  30.2559°N, 95.1867°W
Report Text: K6R3 301555Z AUTO 13003KT 10SM CLR 19/12 A3018 RMK AO2 T01910116
Loading
Personal Weather Stations






























Interactive Weather Map
Tropical Storm Tracking
New forecast layout! Learn more

10-Day Weather Forecast

Advertisements
Track Severe Weather on mobile